sensor_id;sensor_type;location;lat;lon;timestamp;P1;durP1;ratioP1;P2;durP2;ratioP2
63394;SDS011;49531;-34.520;150.798;2023-06-10T00:00:37;2.35;;;0.90;;
63394;SDS011;49531;-34.520;150.798;2023-06-10T00:03:07;0.60;;;0.60;;
63394;SDS011;49531;-34.520;150.798;2023-06-10T00:05:35;1.70;;;0.80;;
63394;SDS011;49531;-34.520;150.798;2023-06-10T00:08:04;1.65;;;0.80;;
63394;SDS011;49531;-34.520;150.798;2023-06-10T00:10:33;0.90;;;0.60;;
63394;SDS011;49531;-34.520;150.798;2023-06-10T00:13:21;1.23;;;0.70;;
63394;SDS011;49531;-34.520;150.798;2023-06-10T00:15:51;1.50;;;0.70;;
63394;SDS011;49531;-34.520;150.798;2023-06-10T00:18:30;2.45;;;0.80;;
63394;SDS011;49531;-34.520;150.798;2023-06-10T00:20:58;3.58;;;0.80;;
63394;SDS011;49531;-34.520;150.798;2023-06-10T00:23:30;1.73;;;1.05;;
63394;SDS011;49531;-34.520;150.798;2023-06-10T00:26:17;1.30;;;0.70;;
63394;SDS011;49531;-34.520;150.798;2023-06-10T00:28:44;1.23;;;0.70;;
63394;SDS011;49531;-34.520;150.798;2023-06-10T00:31:12;2.00;;;0.77;;
63394;SDS011;49531;-34.520;150.798;2023-06-10T00:33:39;2.53;;;0.70;;
63394;SDS011;49531;-34.520;150.798;2023-06-10T00:36:06;1.20;;;0.60;;
63394;SDS011;49531;-34.520;150.798;2023-06-10T00:38:33;1.15;;;0.70;;
63394;SDS011;49531;-34.520;150.798;2023-06-10T00:41:03;2.00;;;0.70;;
63394;SDS011;49531;-34.520;150.798;2023-06-10T00:43:30;1.55;;;0.68;;
63394;SDS011;49531;-34.520;150.798;2023-06-10T00:46:00;2.35;;;0.70;;
63394;SDS011;49531;-34.520;150.798;2023-06-10T00:48:27;1.17;;;0.68;;
63394;SDS011;49531;-34.520;150.798;2023-06-10T00:50:55;2.28;;;0.80;;
63394;SDS011;49531;-34.520;150.798;2023-06-10T00:53:22;0.90;;;0.60;;
63394;SDS011;49531;-34.520;150.798;2023-06-10T00:55:50;2.33;;;0.70;;
63394;SDS011;49531;-34.520;150.798;2023-06-10T00:58:18;1.90;;;0.70;;
63394;SDS011;49531;-34.520;150.798;2023-06-10T01:00:45;1.90;;;0.77;;
63394;SDS011;49531;-34.520;150.798;2023-06-10T01:03:12;1.60;;;0.80;;
63394;SDS011;49531;-34.520;150.798;2023-06-10T01:05:40;2.67;;;0.80;;
63394;SDS011;49531;-34.520;150.798;2023-06-10T01:08:14;1.15;;;0.65;;
63394;SDS011;49531;-34.520;150.798;2023-06-10T01:10:53;2.35;;;0.70;;
63394;SDS011;49531;-34.520;150.798;2023-06-10T01:13:24;2.15;;;0.63;;
63394;SDS011;49531;-34.520;150.798;2023-06-10T01:15:55;2.88;;;0.65;;
63394;SDS011;49531;-34.520;150.798;2023-06-10T01:18:23;3.38;;;0.80;;
63394;SDS011;49531;-34.520;150.798;2023-06-10T01:20:56;1.65;;;0.80;;
63394;SDS011;49531;-34.520;150.798;2023-06-10T01:23:23;1.27;;;0.73;;
63394;SDS011;49531;-34.520;150.798;2023-06-10T01:25:56;0.85;;;0.50;;
63394;SDS011;49531;-34.520;150.798;2023-06-10T01:28:31;2.45;;;0.80;;
63394;SDS011;49531;-34.520;150.798;2023-06-10T01:31:08;2.95;;;0.82;;
63394;SDS011;49531;-34.520;150.798;2023-06-10T01:33:45;0.85;;;0.70;;
63394;SDS011;49531;-34.520;150.798;2023-06-10T01:36:15;1.52;;;0.60;;
63394;SDS011;49531;-34.520;150.798;2023-06-10T01:38:44;0.70;;;0.60;;
63394;SDS011;49531;-34.520;150.798;2023-06-10T01:41:14;1.45;;;0.63;;
63394;SDS011;49531;-34.520;150.798;2023-06-10T01:43:44;1.17;;;0.70;;
63394;SDS011;49531;-34.520;150.798;2023-06-10T01:46:11;1.58;;;0.60;;
63394;SDS011;49531;-34.520;150.798;2023-06-10T01:48:40;2.13;;;0.65;;
63394;SDS011;49531;-34.520;150.798;2023-06-10T01:51:08;1.17;;;0.60;;
63394;SDS011;49531;-34.520;150.798;2023-06-10T01:53:35;1.38;;;0.70;;
63394;SDS011;49531;-34.520;150.798;2023-06-10T01:56:02;1.00;;;0.60;;
63394;SDS011;49531;-34.520;150.798;2023-06-10T01:58:29;1.65;;;0.60;;
63394;SDS011;49531;-34.520;150.798;2023-06-10T02:00:56;0.90;;;0.47;;
63394;SDS011;49531;-34.520;150.798;2023-06-10T02:03:23;1.10;;;0.60;;
63394;SDS011;49531;-34.520;150.798;2023-06-10T02:05:50;1.02;;;0.60;;
63394;SDS011;49531;-34.520;150.798;2023-06-10T02:08:18;1.40;;;0.50;;
63394;SDS011;49531;-34.520;150.798;2023-06-10T02:10:45;1.95;;;0.60;;
63394;SDS011;49531;-34.520;150.798;2023-06-10T02:13:12;2.42;;;0.60;;
63394;SDS011;49531;-34.520;150.798;2023-06-10T02:15:42;1.30;;;0.68;;
63394;SDS011;49531;-34.520;150.798;2023-06-10T02:18:09;1.33;;;0.57;;
63394;SDS011;49531;-34.520;150.798;2023-06-10T02:20:38;1.05;;;0.52;;
63394;SDS011;49531;-34.520;150.798;2023-06-10T02:23:05;1.83;;;0.60;;
63394;SDS011;49531;-34.520;150.798;2023-06-10T02:25:32;1.40;;;0.60;;
63394;SDS011;49531;-34.520;150.798;2023-06-10T02:27:59;1.05;;;0.50;;
63394;SDS011;49531;-34.520;150.798;2023-06-10T02:30:29;1.75;;;0.50;;
63394;SDS011;49531;-34.520;150.798;2023-06-10T02:32:56;0.90;;;0.60;;
63394;SDS011;49531;-34.520;150.798;2023-06-10T02:35:24;1.08;;;0.70;;
63394;SDS011;49531;-34.520;150.798;2023-06-10T02:37:51;1.20;;;0.70;;
63394;SDS011;49531;-34.520;150.798;2023-06-10T02:40:19;3.47;;;0.57;;
63394;SDS011;49531;-34.520;150.798;2023-06-10T02:42:46;0.82;;;0.63;;
63394;SDS011;49531;-34.520;150.798;2023-06-10T02:45:13;1.70;;;0.82;;
63394;SDS011;49531;-34.520;150.798;2023-06-10T02:47:41;1.55;;;0.60;;
63394;SDS011;49531;-34.520;150.798;2023-06-10T02:50:08;3.47;;;0.75;;
63394;SDS011;49531;-34.520;150.798;2023-06-10T02:52:35;1.92;;;0.73;;
63394;SDS011;49531;-34.520;150.798;2023-06-10T02:55:03;1.55;;;0.75;;
63394;SDS011;49531;-34.520;150.798;2023-06-10T02:57:30;0.95;;;0.70;;
63394;SDS011;49531;-34.520;150.798;2023-06-10T02:59:58;27.75;;;2.03;;
63394;SDS011;49531;-34.520;150.798;2023-06-10T03:02:25;15.80;;;1.90;;
63394;SDS011;49531;-34.520;150.798;2023-06-10T03:04:54;11.48;;;1.70;;
63394;SDS011;49531;-34.520;150.798;2023-06-10T03:07:22;6.18;;;1.30;;
63394;SDS011;49531;-34.520;150.798;2023-06-10T03:09:49;6.72;;;1.30;;
63394;SDS011;49531;-34.520;150.798;2023-06-10T03:12:16;7.28;;;1.27;;
63394;SDS011;49531;-34.520;150.798;2023-06-10T03:14:43;6.15;;;1.30;;
63394;SDS011;49531;-34.520;150.798;2023-06-10T03:17:11;4.55;;;1.08;;
63394;SDS011;49531;-34.520;150.798;2023-06-10T03:19:38;4.15;;;1.30;;
63394;SDS011;49531;-34.520;150.798;2023-06-10T03:22:09;4.18;;;1.00;;
63394;SDS011;49531;-34.520;150.798;2023-06-10T03:24:37;3.80;;;0.90;;
63394;SDS011;49531;-34.520;150.798;2023-06-10T03:27:06;2.90;;;0.88;;
63394;SDS011;49531;-34.520;150.798;2023-06-10T03:29:34;1.65;;;0.93;;
63394;SDS011;49531;-34.520;150.798;2023-06-10T03:32:01;1.38;;;0.90;;
63394;SDS011;49531;-34.520;150.798;2023-06-10T03:34:29;4.38;;;1.13;;
63394;SDS011;49531;-34.520;150.798;2023-06-10T03:36:56;0.80;;;0.65;;
63394;SDS011;49531;-34.520;150.798;2023-06-10T03:39:24;2.15;;;0.60;;
63394;SDS011;49531;-34.520;150.798;2023-06-10T03:41:55;1.08;;;0.60;;
63394;SDS011;49531;-34.520;150.798;2023-06-10T03:44:23;2.47;;;0.80;;
63394;SDS011;49531;-34.520;150.798;2023-06-10T03:46:51;1.23;;;0.50;;
63394;SDS011;49531;-34.520;150.798;2023-06-10T03:49:19;1.75;;;0.70;;
63394;SDS011;49531;-34.520;150.798;2023-06-10T03:51:46;3.42;;;0.70;;
63394;SDS011;49531;-34.520;150.798;2023-06-10T03:54:13;2.83;;;0.68;;
63394;SDS011;49531;-34.520;150.798;2023-06-10T03:56:40;3.85;;;0.80;;
63394;SDS011;49531;-34.520;150.798;2023-06-10T03:59:07;1.98;;;0.73;;
63394;SDS011;49531;-34.520;150.798;2023-06-10T04:01:34;3.75;;;0.85;;
63394;SDS011;49531;-34.520;150.798;2023-06-10T04:04:03;1.65;;;0.60;;
63394;SDS011;49531;-34.520;150.798;2023-06-10T04:06:30;1.70;;;0.70;;
63394;SDS011;49531;-34.520;150.798;2023-06-10T04:08:57;2.83;;;0.70;;
63394;SDS011;49531;-34.520;150.798;2023-06-10T04:11:24;2.58;;;0.65;;
63394;SDS011;49531;-34.520;150.798;2023-06-10T04:13:51;1.45;;;0.70;;
63394;SDS011;49531;-34.520;150.798;2023-06-10T04:16:19;4.55;;;0.70;;
63394;SDS011;49531;-34.520;150.798;2023-06-10T04:18:47;2.20;;;0.70;;
63394;SDS011;49531;-34.520;150.798;2023-06-10T04:21:14;3.30;;;0.70;;
63394;SDS011;49531;-34.520;150.798;2023-06-10T04:23:41;4.30;;;0.68;;
63394;SDS011;49531;-34.520;150.798;2023-06-10T04:26:08;2.13;;;0.90;;
63394;SDS011;49531;-34.520;150.798;2023-06-10T04:28:37;3.70;;;0.90;;
63394;SDS011;49531;-34.520;150.798;2023-06-10T04:31:04;3.60;;;0.80;;
63394;SDS011;49531;-34.520;150.798;2023-06-10T04:33:31;1.65;;;0.70;;
63394;SDS011;49531;-34.520;150.798;2023-06-10T04:35:59;1.48;;;0.60;;
63394;SDS011;49531;-34.520;150.798;2023-06-10T04:38:26;6.20;;;0.80;;
63394;SDS011;49531;-34.520;150.798;2023-06-10T04:40:53;4.75;;;0.70;;
63394;SDS011;49531;-34.520;150.798;2023-06-10T04:43:21;4.20;;;0.80;;
63394;SDS011;49531;-34.520;150.798;2023-06-10T04:45:48;2.03;;;0.70;;
63394;SDS011;49531;-34.520;150.798;2023-06-10T04:48:16;2.90;;;0.80;;
63394;SDS011;49531;-34.520;150.798;2023-06-10T04:50:43;4.25;;;0.70;;
63394;SDS011;49531;-34.520;150.798;2023-06-10T04:53:10;5.45;;;0.70;;
63394;SDS011;49531;-34.520;150.798;2023-06-10T04:55:37;14.38;;;1.23;;
63394;SDS011;49531;-34.520;150.798;2023-06-10T04:58:04;7.70;;;0.80;;
63394;SDS011;49531;-34.520;150.798;2023-06-10T05:00:31;6.13;;;0.80;;
63394;SDS011;49531;-34.520;150.798;2023-06-10T05:02:58;5.72;;;0.80;;
63394;SDS011;49531;-34.520;150.798;2023-06-10T05:05:25;2.72;;;0.70;;
63394;SDS011;49531;-34.520;150.798;2023-06-10T05:07:52;2.45;;;0.80;;
63394;SDS011;49531;-34.520;150.798;2023-06-10T05:10:19;4.03;;;0.70;;
63394;SDS011;49531;-34.520;150.798;2023-06-10T05:12:46;2.35;;;0.80;;
63394;SDS011;49531;-34.520;150.798;2023-06-10T05:15:14;2.15;;;0.80;;
63394;SDS011;49531;-34.520;150.798;2023-06-10T05:17:41;2.67;;;0.82;;
63394;SDS011;49531;-34.520;150.798;2023-06-10T05:20:08;1.52;;;0.60;;
63394;SDS011;49531;-34.520;150.798;2023-06-10T05:22:35;2.63;;;0.80;;
63394;SDS011;49531;-34.520;150.798;2023-06-10T05:25:03;2.75;;;0.60;;
63394;SDS011;49531;-34.520;150.798;2023-06-10T05:27:30;2.90;;;0.60;;
63394;SDS011;49531;-34.520;150.798;2023-06-10T05:29:57;3.13;;;0.80;;
63394;SDS011;49531;-34.520;150.798;2023-06-10T05:32:25;2.00;;;0.65;;
63394;SDS011;49531;-34.520;150.798;2023-06-10T05:34:52;1.75;;;0.80;;
63394;SDS011;49531;-34.520;150.798;2023-06-10T05:37:19;2.33;;;0.68;;
63394;SDS011;49531;-34.520;150.798;2023-06-10T05:39:46;2.50;;;0.60;;
63394;SDS011;49531;-34.520;150.798;2023-06-10T05:42:13;1.95;;;0.60;;
63394;SDS011;49531;-34.520;150.798;2023-06-10T05:44:40;1.42;;;0.70;;
63394;SDS011;49531;-34.520;150.798;2023-06-10T05:47:07;2.08;;;0.80;;
63394;SDS011;49531;-34.520;150.798;2023-06-10T05:49:34;0.93;;;0.60;;
63394;SDS011;49531;-34.520;150.798;2023-06-10T05:52:02;2.05;;;0.73;;
63394;SDS011;49531;-34.520;150.798;2023-06-10T05:54:29;1.45;;;0.70;;
63394;SDS011;49531;-34.520;150.798;2023-06-10T05:56:56;1.55;;;0.70;;
63394;SDS011;49531;-34.520;150.798;2023-06-10T05:59:23;0.95;;;0.60;;
63394;SDS011;49531;-34.520;150.798;2023-06-10T06:01:50;0.82;;;0.60;;
63394;SDS011;49531;-34.520;150.798;2023-06-10T06:04:18;2.10;;;0.70;;
63394;SDS011;49531;-34.520;150.798;2023-06-10T06:06:45;1.25;;;0.60;;
63394;SDS011;49531;-34.520;150.798;2023-06-10T06:09:12;1.15;;;0.60;;
63394;SDS011;49531;-34.520;150.798;2023-06-10T06:11:39;0.88;;;0.60;;
63394;SDS011;49531;-34.520;150.798;2023-06-10T06:14:07;1.83;;;0.80;;
63394;SDS011;49531;-34.520;150.798;2023-06-10T06:16:34;1.70;;;0.60;;
63394;SDS011;49531;-34.520;150.798;2023-06-10T06:19:01;1.33;;;0.60;;
63394;SDS011;49531;-34.520;150.798;2023-06-10T06:21:28;2.65;;;0.80;;
63394;SDS011;49531;-34.520;150.798;2023-06-10T06:23:56;1.45;;;0.80;;
63394;SDS011;49531;-34.520;150.798;2023-06-10T06:26:23;0.75;;;0.60;;
63394;SDS011;49531;-34.520;150.798;2023-06-10T06:28:51;2.38;;;0.73;;
63394;SDS011;49531;-34.520;150.798;2023-06-10T06:31:18;1.70;;;0.60;;
63394;SDS011;49531;-34.520;150.798;2023-06-10T06:33:45;1.25;;;0.55;;
63394;SDS011;49531;-34.520;150.798;2023-06-10T06:36:12;1.48;;;0.60;;
63394;SDS011;49531;-34.520;150.798;2023-06-10T06:38:39;2.03;;;0.80;;
63394;SDS011;49531;-34.520;150.798;2023-06-10T06:41:06;1.38;;;0.70;;
63394;SDS011;49531;-34.520;150.798;2023-06-10T06:43:33;0.90;;;0.68;;
63394;SDS011;49531;-34.520;150.798;2023-06-10T06:46:00;0.90;;;0.60;;
63394;SDS011;49531;-34.520;150.798;2023-06-10T06:48:27;0.80;;;0.60;;
63394;SDS011;49531;-34.520;150.798;2023-06-10T06:50:55;0.93;;;0.55;;
63394;SDS011;49531;-34.520;150.798;2023-06-10T06:53:23;1.25;;;0.65;;
63394;SDS011;49531;-34.520;150.798;2023-06-10T06:55:51;1.90;;;0.80;;
63394;SDS011;49531;-34.520;150.798;2023-06-10T06:58:18;1.58;;;0.60;;
63394;SDS011;49531;-34.520;150.798;2023-06-10T07:00:45;2.08;;;0.70;;
63394;SDS011;49531;-34.520;150.798;2023-06-10T07:03:12;2.78;;;0.70;;
63394;SDS011;49531;-34.520;150.798;2023-06-10T07:05:39;1.25;;;0.70;;
63394;SDS011;49531;-34.520;150.798;2023-06-10T07:08:06;1.30;;;0.65;;
63394;SDS011;49531;-34.520;150.798;2023-06-10T07:10:33;1.23;;;0.60;;
63394;SDS011;49531;-34.520;150.798;2023-06-10T07:13:00;1.02;;;0.70;;
63394;SDS011;49531;-34.520;150.798;2023-06-10T07:15:28;1.50;;;0.65;;
63394;SDS011;49531;-34.520;150.798;2023-06-10T07:17:55;0.98;;;0.60;;
63394;SDS011;49531;-34.520;150.798;2023-06-10T07:20:22;1.88;;;0.80;;
63394;SDS011;49531;-34.520;150.798;2023-06-10T07:22:50;1.75;;;0.70;;
63394;SDS011;49531;-34.520;150.798;2023-06-10T07:25:17;2.05;;;0.90;;
63394;SDS011;49531;-34.520;150.798;2023-06-10T07:27:44;2.60;;;0.90;;
63394;SDS011;49531;-34.520;150.798;2023-06-10T07:30:11;2.30;;;1.10;;
63394;SDS011;49531;-34.520;150.798;2023-06-10T07:32:39;1.98;;;1.40;;
63394;SDS011;49531;-34.520;150.798;2023-06-10T07:35:08;2.08;;;1.38;;
63394;SDS011;49531;-34.520;150.798;2023-06-10T07:37:37;3.10;;;1.42;;
63394;SDS011;49531;-34.520;150.798;2023-06-10T07:40:04;2.10;;;1.30;;
63394;SDS011;49531;-34.520;150.798;2023-06-10T07:42:32;4.30;;;1.45;;
63394;SDS011;49531;-34.520;150.798;2023-06-10T07:45:00;3.33;;;1.85;;
63394;SDS011;49531;-34.520;150.798;2023-06-10T07:47:28;3.28;;;2.10;;
63394;SDS011;49531;-34.520;150.798;2023-06-10T07:49:56;3.72;;;2.10;;
63394;SDS011;49531;-34.520;150.798;2023-06-10T07:52:23;4.50;;;2.03;;
63394;SDS011;49531;-34.520;150.798;2023-06-10T07:54:51;2.70;;;1.90;;
63394;SDS011;49531;-34.520;150.798;2023-06-10T07:57:18;3.47;;;1.88;;
63394;SDS011;49531;-34.520;150.798;2023-06-10T07:59:46;3.13;;;1.60;;
63394;SDS011;49531;-34.520;150.798;2023-06-10T08:02:14;3.00;;;1.80;;
63394;SDS011;49531;-34.520;150.798;2023-06-10T08:04:41;2.72;;;1.70;;
63394;SDS011;49531;-34.520;150.798;2023-06-10T08:07:08;2.97;;;1.70;;
63394;SDS011;49531;-34.520;150.798;2023-06-10T08:09:35;5.53;;;1.65;;
63394;SDS011;49531;-34.520;150.798;2023-06-10T08:12:02;3.70;;;1.55;;
63394;SDS011;49531;-34.520;150.798;2023-06-10T08:14:31;5.22;;;1.40;;
63394;SDS011;49531;-34.520;150.798;2023-06-10T08:16:58;2.65;;;1.23;;
63394;SDS011;49531;-34.520;150.798;2023-06-10T08:19:26;3.80;;;1.48;;
63394;SDS011;49531;-34.520;150.798;2023-06-10T08:21:53;1.98;;;1.20;;
63394;SDS011;49531;-34.520;150.798;2023-06-10T08:24:20;1.80;;;1.30;;
63394;SDS011;49531;-34.520;150.798;2023-06-10T08:26:47;3.03;;;1.40;;
63394;SDS011;49531;-34.520;150.798;2023-06-10T08:29:14;4.20;;;1.50;;
63394;SDS011;49531;-34.520;150.798;2023-06-10T08:31:42;2.40;;;1.55;;
63394;SDS011;49531;-34.520;150.798;2023-06-10T08:34:09;2.70;;;1.60;;
63394;SDS011;49531;-34.520;150.798;2023-06-10T08:36:37;2.97;;;1.63;;
63394;SDS011;49531;-34.520;150.798;2023-06-10T08:39:04;3.88;;;1.60;;
63394;SDS011;49531;-34.520;150.798;2023-06-10T08:41:34;3.00;;;1.52;;
63394;SDS011;49531;-34.520;150.798;2023-06-10T08:44:10;2.80;;;1.40;;
63394;SDS011;49531;-34.520;150.798;2023-06-10T08:46:44;2.97;;;1.30;;
63394;SDS011;49531;-34.520;150.798;2023-06-10T08:49:14;1.85;;;1.20;;
63394;SDS011;49531;-34.520;150.798;2023-06-10T08:51:47;2.58;;;1.30;;
63394;SDS011;49531;-34.520;150.798;2023-06-10T08:54:17;3.05;;;1.63;;
63394;SDS011;49531;-34.520;150.798;2023-06-10T08:56:48;2.05;;;1.42;;
63394;SDS011;49531;-34.520;150.798;2023-06-10T08:59:16;3.35;;;1.67;;
63394;SDS011;49531;-34.520;150.798;2023-06-10T09:01:44;3.60;;;1.70;;
63394;SDS011;49531;-34.520;150.798;2023-06-10T09:04:12;2.95;;;2.00;;
63394;SDS011;49531;-34.520;150.798;2023-06-10T09:06:40;5.80;;;1.70;;
63394;SDS011;49531;-34.520;150.798;2023-06-10T09:09:07;3.58;;;1.90;;
63394;SDS011;49531;-34.520;150.798;2023-06-10T09:11:34;3.40;;;1.70;;
63394;SDS011;49531;-34.520;150.798;2023-06-10T09:14:02;3.58;;;1.65;;
63394;SDS011;49531;-34.520;150.798;2023-06-10T09:16:29;4.55;;;1.65;;
63394;SDS011;49531;-34.520;150.798;2023-06-10T09:18:57;3.25;;;1.65;;
63394;SDS011;49531;-34.520;150.798;2023-06-10T09:21:24;2.47;;;1.63;;
63394;SDS011;49531;-34.520;150.798;2023-06-10T09:23:51;3.25;;;1.60;;
63394;SDS011;49531;-34.520;150.798;2023-06-10T09:26:19;2.80;;;1.60;;
63394;SDS011;49531;-34.520;150.798;2023-06-10T09:28:48;3.45;;;1.65;;
63394;SDS011;49531;-34.520;150.798;2023-06-10T09:31:15;1.83;;;1.50;;
63394;SDS011;49531;-34.520;150.798;2023-06-10T09:33:47;3.55;;;1.70;;
63394;SDS011;49531;-34.520;150.798;2023-06-10T09:36:21;3.28;;;1.50;;
63394;SDS011;49531;-34.520;150.798;2023-06-10T09:38:49;3.03;;;1.42;;
63394;SDS011;49531;-34.520;150.798;2023-06-10T09:41:17;3.25;;;1.60;;
63394;SDS011;49531;-34.520;150.798;2023-06-10T09:43:45;4.03;;;1.70;;
63394;SDS011;49531;-34.520;150.798;2023-06-10T09:46:15;3.95;;;1.60;;
63394;SDS011;49531;-34.520;150.798;2023-06-10T09:48:43;3.70;;;1.50;;
63394;SDS011;49531;-34.520;150.798;2023-06-10T09:51:12;3.28;;;1.50;;
63394;SDS011;49531;-34.520;150.798;2023-06-10T09:53:42;4.03;;;1.67;;
63394;SDS011;49531;-34.520;150.798;2023-06-10T09:56:13;3.85;;;1.60;;
63394;SDS011;49531;-34.520;150.798;2023-06-10T09:58:40;4.10;;;1.60;;
63394;SDS011;49531;-34.520;150.798;2023-06-10T10:01:10;1.85;;;1.30;;
63394;SDS011;49531;-34.520;150.798;2023-06-10T10:03:45;2.20;;;1.30;;
63394;SDS011;49531;-34.520;150.798;2023-06-10T10:06:15;3.50;;;1.40;;
63394;SDS011;49531;-34.520;150.798;2023-06-10T10:08:43;2.97;;;1.40;;
63394;SDS011;49531;-34.520;150.798;2023-06-10T10:11:13;4.18;;;1.20;;
63394;SDS011;49531;-34.520;150.798;2023-06-10T10:13:44;2.15;;;1.30;;
63394;SDS011;49531;-34.520;150.798;2023-06-10T10:16:15;3.00;;;1.30;;
63394;SDS011;49531;-34.520;150.798;2023-06-10T10:18:47;2.33;;;1.20;;
63394;SDS011;49531;-34.520;150.798;2023-06-10T10:21:22;3.75;;;1.40;;
63394;SDS011;49531;-34.520;150.798;2023-06-10T10:23:57;4.78;;;1.45;;
63394;SDS011;49531;-34.520;150.798;2023-06-10T10:26:33;2.40;;;1.40;;
63394;SDS011;49531;-34.520;150.798;2023-06-10T10:29:05;2.75;;;1.20;;
63394;SDS011;49531;-34.520;150.798;2023-06-10T10:31:38;2.40;;;1.20;;
63394;SDS011;49531;-34.520;150.798;2023-06-10T10:34:09;2.70;;;1.40;;
63394;SDS011;49531;-34.520;150.798;2023-06-10T10:36:42;1.88;;;1.17;;
63394;SDS011;49531;-34.520;150.798;2023-06-10T10:39:10;2.33;;;1.13;;
63394;SDS011;49531;-34.520;150.798;2023-06-10T10:41:38;2.35;;;1.15;;
63394;SDS011;49531;-34.520;150.798;2023-06-10T10:44:06;3.70;;;1.40;;
63394;SDS011;49531;-34.520;150.798;2023-06-10T10:46:43;1.83;;;1.08;;
63394;SDS011;49531;-34.520;150.798;2023-06-10T10:49:14;2.47;;;1.15;;
63394;SDS011;49531;-34.520;150.798;2023-06-10T10:54:29;2.17;;;1.30;;
63394;SDS011;49531;-34.520;150.798;2023-06-10T10:57:10;3.85;;;1.20;;
63394;SDS011;49531;-34.520;150.798;2023-06-10T10:59:46;2.97;;;1.30;;
63394;SDS011;49531;-34.520;150.798;2023-06-10T11:02:32;2.35;;;1.00;;
63394;SDS011;49531;-34.520;150.798;2023-06-10T11:05:01;2.45;;;1.10;;
63394;SDS011;49531;-34.520;150.798;2023-06-10T11:07:31;2.20;;;1.02;;
63394;SDS011;49531;-34.520;150.798;2023-06-10T11:09:59;1.67;;;1.00;;
63394;SDS011;49531;-34.520;150.798;2023-06-10T11:15:18;2.30;;;1.10;;
63394;SDS011;49531;-34.520;150.798;2023-06-10T11:20:55;1.77;;;1.10;;
63394;SDS011;49531;-34.520;150.798;2023-06-10T11:23:26;1.20;;;1.10;;
63394;SDS011;49531;-34.520;150.798;2023-06-10T11:26:12;1.63;;;1.00;;
63394;SDS011;49531;-34.520;150.798;2023-06-10T11:31:38;2.42;;;0.90;;
63394;SDS011;49531;-34.520;150.798;2023-06-10T11:34:07;1.90;;;0.90;;
63394;SDS011;49531;-34.520;150.798;2023-06-10T11:36:39;2.15;;;1.10;;
63394;SDS011;49531;-34.520;150.798;2023-06-10T11:39:08;1.70;;;1.00;;
63394;SDS011;49531;-34.520;150.798;2023-06-10T11:41:37;2.47;;;1.02;;
63394;SDS011;49531;-34.520;150.798;2023-06-10T11:44:09;1.60;;;1.20;;
63394;SDS011;49531;-34.520;150.798;2023-06-10T11:46:38;2.13;;;1.10;;
63394;SDS011;49531;-34.520;150.798;2023-06-10T11:49:05;1.98;;;1.10;;
63394;SDS011;49531;-34.520;150.798;2023-06-10T11:51:34;1.15;;;0.98;;
63394;SDS011;49531;-34.520;150.798;2023-06-10T11:54:03;1.90;;;1.10;;
63394;SDS011;49531;-34.520;150.798;2023-06-10T11:56:31;2.05;;;1.00;;
63394;SDS011;49531;-34.520;150.798;2023-06-10T11:58:59;2.35;;;1.17;;
63394;SDS011;49531;-34.520;150.798;2023-06-10T12:01:30;1.85;;;1.00;;
63394;SDS011;49531;-34.520;150.798;2023-06-10T12:03:59;2.30;;;1.20;;
63394;SDS011;49531;-34.520;150.798;2023-06-10T12:06:43;1.90;;;1.20;;
63394;SDS011;49531;-34.520;150.798;2023-06-10T12:09:13;1.70;;;0.90;;
63394;SDS011;49531;-34.520;150.798;2023-06-10T12:11:44;1.60;;;1.02;;
63394;SDS011;49531;-34.520;150.798;2023-06-10T12:14:14;2.15;;;1.05;;
63394;SDS011;49531;-34.520;150.798;2023-06-10T12:16:48;1.60;;;1.00;;
63394;SDS011;49531;-34.520;150.798;2023-06-10T12:19:15;1.77;;;1.13;;
63394;SDS011;49531;-34.520;150.798;2023-06-10T12:21:42;1.27;;;0.95;;
63394;SDS011;49531;-34.520;150.798;2023-06-10T12:24:11;1.67;;;1.10;;
63394;SDS011;49531;-34.520;150.798;2023-06-10T12:26:40;1.42;;;0.95;;
63394;SDS011;49531;-34.520;150.798;2023-06-10T12:29:12;2.30;;;1.17;;
63394;SDS011;49531;-34.520;150.798;2023-06-10T12:31:55;1.98;;;0.90;;
63394;SDS011;49531;-34.520;150.798;2023-06-10T12:34:29;2.58;;;1.20;;
63394;SDS011;49531;-34.520;150.798;2023-06-10T12:37:02;2.20;;;1.10;;
63394;SDS011;49531;-34.520;150.798;2023-06-10T12:39:32;2.22;;;1.00;;
63394;SDS011;49531;-34.520;150.798;2023-06-10T12:42:00;1.67;;;0.93;;
63394;SDS011;49531;-34.520;150.798;2023-06-10T12:44:28;1.20;;;0.95;;
63394;SDS011;49531;-34.520;150.798;2023-06-10T12:46:56;1.45;;;0.90;;
63394;SDS011;49531;-34.520;150.798;2023-06-10T12:49:23;2.40;;;1.10;;
63394;SDS011;49531;-34.520;150.798;2023-06-10T12:51:51;1.48;;;1.00;;
63394;SDS011;49531;-34.520;150.798;2023-06-10T12:54:19;2.15;;;1.00;;
63394;SDS011;49531;-34.520;150.798;2023-06-10T12:56:47;1.63;;;0.95;;
63394;SDS011;49531;-34.520;150.798;2023-06-10T12:59:14;1.45;;;0.80;;
63394;SDS011;49531;-34.520;150.798;2023-06-10T13:01:41;1.55;;;0.80;;
63394;SDS011;49531;-34.520;150.798;2023-06-10T13:04:08;1.63;;;0.80;;
63394;SDS011;49531;-34.520;150.798;2023-06-10T13:06:36;1.63;;;0.90;;
63394;SDS011;49531;-34.520;150.798;2023-06-10T13:09:05;3.55;;;0.95;;
63394;SDS011;49531;-34.520;150.798;2023-06-10T13:11:33;3.75;;;1.00;;
63394;SDS011;49531;-34.520;150.798;2023-06-10T13:14:01;1.70;;;0.93;;
63394;SDS011;49531;-34.520;150.798;2023-06-10T13:16:30;2.05;;;0.82;;
63394;SDS011;49531;-34.520;150.798;2023-06-10T13:18:58;2.40;;;0.90;;
63394;SDS011;49531;-34.520;150.798;2023-06-10T13:21:28;1.95;;;0.80;;
63394;SDS011;49531;-34.520;150.798;2023-06-10T13:23:55;2.38;;;1.00;;
63394;SDS011;49531;-34.520;150.798;2023-06-10T13:26:22;1.77;;;0.82;;
63394;SDS011;49531;-34.520;150.798;2023-06-10T13:28:49;2.00;;;0.90;;
63394;SDS011;49531;-34.520;150.798;2023-06-10T13:31:16;2.00;;;1.00;;
63394;SDS011;49531;-34.520;150.798;2023-06-10T13:33:43;3.70;;;1.00;;
63394;SDS011;49531;-34.520;150.798;2023-06-10T13:36:10;2.33;;;1.15;;
63394;SDS011;49531;-34.520;150.798;2023-06-10T13:38:38;1.70;;;0.90;;
63394;SDS011;49531;-34.520;150.798;2023-06-10T13:41:05;1.90;;;0.95;;
63394;SDS011;49531;-34.520;150.798;2023-06-10T13:43:33;1.90;;;0.90;;
63394;SDS011;49531;-34.520;150.798;2023-06-10T13:46:00;1.05;;;0.80;;
63394;SDS011;49531;-34.520;150.798;2023-06-10T13:48:27;3.63;;;1.10;;
63394;SDS011;49531;-34.520;150.798;2023-06-10T13:50:54;1.60;;;1.00;;
63394;SDS011;49531;-34.520;150.798;2023-06-10T13:53:21;2.33;;;0.82;;
63394;SDS011;49531;-34.520;150.798;2023-06-10T13:55:49;2.08;;;0.90;;
63394;SDS011;49531;-34.520;150.798;2023-06-10T13:58:16;4.55;;;1.15;;
63394;SDS011;49531;-34.520;150.798;2023-06-10T14:00:43;2.35;;;1.10;;
63394;SDS011;49531;-34.520;150.798;2023-06-10T14:03:10;1.60;;;0.85;;
63394;SDS011;49531;-34.520;150.798;2023-06-10T14:05:37;3.85;;;1.23;;
63394;SDS011;49531;-34.520;150.798;2023-06-10T14:08:04;1.52;;;1.00;;
63394;SDS011;49531;-34.520;150.798;2023-06-10T14:10:32;2.38;;;1.00;;
63394;SDS011;49531;-34.520;150.798;2023-06-10T14:12:59;3.03;;;0.98;;
63394;SDS011;49531;-34.520;150.798;2023-06-10T14:15:27;3.13;;;1.00;;
63394;SDS011;49531;-34.520;150.798;2023-06-10T14:17:54;2.95;;;1.00;;
63394;SDS011;49531;-34.520;150.798;2023-06-10T14:20:21;2.67;;;1.05;;
63394;SDS011;49531;-34.520;150.798;2023-06-10T14:22:48;1.83;;;1.13;;
63394;SDS011;49531;-34.520;150.798;2023-06-10T14:25:15;2.45;;;1.00;;
63394;SDS011;49531;-34.520;150.798;2023-06-10T14:27:43;2.78;;;1.10;;